sensor_id;sensor_type;location;lat;lon;timestamp;temperature;humidity
70368;DHT22;57789;53.868;10.728;2023-08-08T00:00:21;13.00;99.90
70368;DHT22;57789;53.868;10.728;2023-08-08T00:02:46;13.00;99.90
70368;DHT22;57789;53.868;10.728;2023-08-08T00:05:12;13.00;99.90
70368;DHT22;57789;53.868;10.728;2023-08-08T00:07:38;13.00;99.90
70368;DHT22;57789;53.868;10.728;2023-08-08T00:10:03;13.00;99.90
70368;DHT22;57789;53.868;10.728;2023-08-08T00:12:29;12.90;99.90
70368;DHT22;57789;53.868;10.728;2023-08-08T00:14:55;12.90;99.90
70368;DHT22;57789;53.868;10.728;2023-08-08T00:17:20;12.90;99.90
70368;DHT22;57789;53.868;10.728;2023-08-08T00:19:46;12.80;99.90
70368;DHT22;57789;53.868;10.728;2023-08-08T00:22:12;12.80;99.90
70368;DHT22;57789;53.868;10.728;2023-08-08T00:24:37;12.80;99.90
70368;DHT22;57789;53.868;10.728;2023-08-08T00:27:03;12.80;99.90
70368;DHT22;57789;53.868;10.728;2023-08-08T00:29:29;12.70;99.90
70368;DHT22;57789;53.868;10.728;2023-08-08T00:31:55;12.70;99.90
70368;DHT22;57789;53.868;10.728;2023-08-08T00:34:21;12.70;99.90
70368;DHT22;57789;53.868;10.728;2023-08-08T00:36:46;12.60;99.90
70368;DHT22;57789;53.868;10.728;2023-08-08T00:39:12;12.60;99.90
70368;DHT22;57789;53.868;10.728;2023-08-08T00:41:38;12.60;99.90
70368;DHT22;57789;53.868;10.728;2023-08-08T00:44:03;12.60;99.90
70368;DHT22;57789;53.868;10.728;2023-08-08T00:46:29;12.60;99.90
70368;DHT22;57789;53.868;10.728;2023-08-08T00:48:55;12.50;99.90
70368;DHT22;57789;53.868;10.728;2023-08-08T00:51:21;12.60;99.90
70368;DHT22;57789;53.868;10.728;2023-08-08T00:53:47;12.60;99.90
70368;DHT22;57789;53.868;10.728;2023-08-08T00:56:14;12.60;99.90
70368;DHT22;57789;53.868;10.728;2023-08-08T00:58:42;12.60;99.90
70368;DHT22;57789;53.868;10.728;2023-08-08T01:01:11;12.60;99.90
70368;DHT22;57789;53.868;10.728;2023-08-08T01:03:36;12.50;99.90
70368;DHT22;57789;53.868;10.728;2023-08-08T01:06:11;12.50;99.90
70368;DHT22;57789;53.868;10.728;2023-08-08T01:08:45;12.40;99.90
70368;DHT22;57789;53.868;10.728;2023-08-08T01:11:13;12.50;99.90
70368;DHT22;57789;53.868;10.728;2023-08-08T01:13:40;12.40;99.90
70368;DHT22;57789;53.868;10.728;2023-08-08T01:16:07;12.40;99.90
70368;DHT22;57789;53.868;10.728;2023-08-08T01:18:33;12.40;99.90
70368;DHT22;57789;53.868;10.728;2023-08-08T01:21:00;12.40;99.90
70368;DHT22;57789;53.868;10.728;2023-08-08T01:23:42;12.40;99.90
70368;DHT22;57789;53.868;10.728;2023-08-08T01:26:09;12.50;99.90
70368;DHT22;57789;53.868;10.728;2023-08-08T01:28:35;12.50;99.90
70368;DHT22;57789;53.868;10.728;2023-08-08T01:31:00;12.60;99.90
70368;DHT22;57789;53.868;10.728;2023-08-08T01:33:26;12.60;99.90
70368;DHT22;57789;53.868;10.728;2023-08-08T01:36:06;12.60;99.90
70368;DHT22;57789;53.868;10.728;2023-08-08T01:38:37;12.50;99.90
70368;DHT22;57789;53.868;10.728;2023-08-08T01:41:05;12.60;99.90
70368;DHT22;57789;53.868;10.728;2023-08-08T01:43:33;12.50;99.90
70368;DHT22;57789;53.868;10.728;2023-08-08T01:46:00;12.50;99.90
70368;DHT22;57789;53.868;10.728;2023-08-08T01:48:28;12.40;99.90
70368;DHT22;57789;53.868;10.728;2023-08-08T01:50:53;12.40;99.90
70368;DHT22;57789;53.868;10.728;2023-08-08T01:53:19;12.40;99.90
70368;DHT22;57789;53.868;10.728;2023-08-08T01:55:45;12.30;99.90
70368;DHT22;57789;53.868;10.728;2023-08-08T01:58:10;12.30;99.90
70368;DHT22;57789;53.868;10.728;2023-08-08T02:00:36;12.30;99.90
70368;DHT22;57789;53.868;10.728;2023-08-08T02:03:02;12.40;99.90
70368;DHT22;57789;53.868;10.728;2023-08-08T02:05:28;12.30;99.90
70368;DHT22;57789;53.868;10.728;2023-08-08T02:07:54;12.30;99.90
70368;DHT22;57789;53.868;10.728;2023-08-08T02:10:20;12.30;99.90
70368;DHT22;57789;53.868;10.728;2023-08-08T02:12:45;12.30;99.90
70368;DHT22;57789;53.868;10.728;2023-08-08T02:15:11;12.30;99.90
70368;DHT22;57789;53.868;10.728;2023-08-08T02:17:38;12.30;99.90
70368;DHT22;57789;53.868;10.728;2023-08-08T02:20:05;12.30;99.90
70368;DHT22;57789;53.868;10.728;2023-08-08T02:22:31;12.30;99.90
70368;DHT22;57789;53.868;10.728;2023-08-08T02:24:56;12.30;99.90
70368;DHT22;57789;53.868;10.728;2023-08-08T02:27:22;12.30;99.90
70368;DHT22;57789;53.868;10.728;2023-08-08T02:29:48;12.30;99.90
70368;DHT22;57789;53.868;10.728;2023-08-08T02:32:14;12.30;99.90
70368;DHT22;57789;53.868;10.728;2023-08-08T02:34:39;12.30;99.90
70368;DHT22;57789;53.868;10.728;2023-08-08T02:37:05;12.30;99.90
70368;DHT22;57789;53.868;10.728;2023-08-08T02:39:31;12.30;99.90
70368;DHT22;57789;53.868;10.728;2023-08-08T02:41:56;12.40;99.90
70368;DHT22;57789;53.868;10.728;2023-08-08T02:44:22;12.40;99.90
70368;DHT22;57789;53.868;10.728;2023-08-08T02:46:48;12.40;99.90
70368;DHT22;57789;53.868;10.728;2023-08-08T02:49:14;12.40;99.90
70368;DHT22;57789;53.868;10.728;2023-08-08T02:51:40;12.50;99.90
70368;DHT22;57789;53.868;10.728;2023-08-08T02:54:05;12.50;99.90
70368;DHT22;57789;53.868;10.728;2023-08-08T02:56:31;12.50;99.90
70368;DHT22;57789;53.868;10.728;2023-08-08T02:58:57;12.50;99.90
70368;DHT22;57789;53.868;10.728;2023-08-08T03:01:23;12.50;99.90
70368;DHT22;57789;53.868;10.728;2023-08-08T03:03:49;12.50;99.90
70368;DHT22;57789;53.868;10.728;2023-08-08T03:06:15;12.50;99.90
70368;DHT22;57789;53.868;10.728;2023-08-08T03:08:40;12.40;99.90
70368;DHT22;57789;53.868;10.728;2023-08-08T03:11:06;12.40;99.90
70368;DHT22;57789;53.868;10.728;2023-08-08T03:13:32;12.40;99.90
70368;DHT22;57789;53.868;10.728;2023-08-08T03:15:58;12.30;99.90
70368;DHT22;57789;53.868;10.728;2023-08-08T03:18:23;12.30;99.90
70368;DHT22;57789;53.868;10.728;2023-08-08T03:20:51;12.30;99.90
70368;DHT22;57789;53.868;10.728;2023-08-08T03:23:17;12.30;99.90
70368;DHT22;57789;53.868;10.728;2023-08-08T03:25:43;12.30;99.90
70368;DHT22;57789;53.868;10.728;2023-08-08T03:28:08;12.30;99.90
70368;DHT22;57789;53.868;10.728;2023-08-08T03:30:36;12.30;99.90
70368;DHT22;57789;53.868;10.728;2023-08-08T03:33:03;12.30;99.90
70368;DHT22;57789;53.868;10.728;2023-08-08T03:35:29;12.40;99.90
70368;DHT22;57789;53.868;10.728;2023-08-08T03:37:54;12.40;99.90
70368;DHT22;57789;53.868;10.728;2023-08-08T03:40:20;12.40;99.90
70368;DHT22;57789;53.868;10.728;2023-08-08T03:42:45;12.40;99.90
70368;DHT22;57789;53.868;10.728;2023-08-08T03:45:11;12.40;99.90
70368;DHT22;57789;53.868;10.728;2023-08-08T03:47:37;12.40;99.90
70368;DHT22;57789;53.868;10.728;2023-08-08T03:50:03;12.40;99.90
70368;DHT22;57789;53.868;10.728;2023-08-08T03:52:30;12.40;99.90
70368;DHT22;57789;53.868;10.728;2023-08-08T03:54:56;12.40;99.90
70368;DHT22;57789;53.868;10.728;2023-08-08T03:57:22;12.40;99.90
70368;DHT22;57789;53.868;10.728;2023-08-08T03:59:47;12.40;99.90
70368;DHT22;57789;53.868;10.728;2023-08-08T04:02:13;12.40;99.90
70368;DHT22;57789;53.868;10.728;2023-08-08T04:04:39;12.50;99.90
70368;DHT22;57789;53.868;10.728;2023-08-08T04:07:04;12.50;99.90
70368;DHT22;57789;53.868;10.728;2023-08-08T04:09:30;12.60;99.90
70368;DHT22;57789;53.868;10.728;2023-08-08T04:11:56;12.60;99.90
70368;DHT22;57789;53.868;10.728;2023-08-08T04:14:22;12.60;99.90
70368;DHT22;57789;53.868;10.728;2023-08-08T04:16:47;12.60;99.90
70368;DHT22;57789;53.868;10.728;2023-08-08T04:19:13;12.60;99.90
70368;DHT22;57789;53.868;10.728;2023-08-08T04:21:39;12.50;99.90
70368;DHT22;57789;53.868;10.728;2023-08-08T04:24:04;12.50;99.90
70368;DHT22;57789;53.868;10.728;2023-08-08T04:26:33;12.50;99.90
70368;DHT22;57789;53.868;10.728;2023-08-08T04:28:59;12.50;99.90
70368;DHT22;57789;53.868;10.728;2023-08-08T04:31:24;12.60;99.90
70368;DHT22;57789;53.868;10.728;2023-08-08T04:33:51;12.60;99.90
70368;DHT22;57789;53.868;10.728;2023-08-08T04:36:17;12.60;99.90
70368;DHT22;57789;53.868;10.728;2023-08-08T04:38:43;12.60;99.90
70368;DHT22;57789;53.868;10.728;2023-08-08T04:41:09;12.50;99.90
70368;DHT22;57789;53.868;10.728;2023-08-08T04:43:34;12.50;99.90
70368;DHT22;57789;53.868;10.728;2023-08-08T04:46:00;12.50;99.90
70368;DHT22;57789;53.868;10.728;2023-08-08T04:48:26;12.50;99.90
70368;DHT22;57789;53.868;10.728;2023-08-08T04:50:51;12.40;99.90
70368;DHT22;57789;53.868;10.728;2023-08-08T04:53:17;12.40;99.90
70368;DHT22;57789;53.868;10.728;2023-08-08T04:55:43;12.40;99.90
70368;DHT22;57789;53.868;10.728;2023-08-08T04:58:08;12.40;99.90
70368;DHT22;57789;53.868;10.728;2023-08-08T05:00:34;12.40;99.90
70368;DHT22;57789;53.868;10.728;2023-08-08T05:03:00;12.30;99.90
70368;DHT22;57789;53.868;10.728;2023-08-08T05:05:26;12.30;99.90
70368;DHT22;57789;53.868;10.728;2023-08-08T05:07:52;12.30;99.90
70368;DHT22;57789;53.868;10.728;2023-08-08T05:10:18;12.40;99.90
70368;DHT22;57789;53.868;10.728;2023-08-08T05:12:43;12.40;99.90
70368;DHT22;57789;53.868;10.728;2023-08-08T05:15:09;12.50;99.90
70368;DHT22;57789;53.868;10.728;2023-08-08T05:17:35;12.50;99.90
70368;DHT22;57789;53.868;10.728;2023-08-08T05:20:01;12.50;99.90
70368;DHT22;57789;53.868;10.728;2023-08-08T05:22:26;12.60;99.90
70368;DHT22;57789;53.868;10.728;2023-08-08T05:24:52;12.60;99.90
70368;DHT22;57789;53.868;10.728;2023-08-08T05:27:18;12.70;99.90
70368;DHT22;57789;53.868;10.728;2023-08-08T05:29:43;12.70;99.90
70368;DHT22;57789;53.868;10.728;2023-08-08T05:32:09;12.80;99.90
70368;DHT22;57789;53.868;10.728;2023-08-08T05:34:35;12.80;99.90
70368;DHT22;57789;53.868;10.728;2023-08-08T05:37:01;12.80;99.90
70368;DHT22;57789;53.868;10.728;2023-08-08T05:39:26;12.70;99.90
70368;DHT22;57789;53.868;10.728;2023-08-08T05:41:52;12.70;99.90
70368;DHT22;57789;53.868;10.728;2023-08-08T05:44:18;12.60;99.90
70368;DHT22;57789;53.868;10.728;2023-08-08T05:46:43;12.60;99.90
70368;DHT22;57789;53.868;10.728;2023-08-08T05:49:09;12.50;99.90
70368;DHT22;57789;53.868;10.728;2023-08-08T05:51:35;12.60;99.90
70368;DHT22;57789;53.868;10.728;2023-08-08T05:54:00;12.60;99.90
70368;DHT22;57789;53.868;10.728;2023-08-08T05:56:37;12.60;99.90
70368;DHT22;57789;53.868;10.728;2023-08-08T05:59:03;12.70;99.90
70368;DHT22;57789;53.868;10.728;2023-08-08T06:01:29;12.70;99.90
70368;DHT22;57789;53.868;10.728;2023-08-08T06:03:55;12.70;99.90
70368;DHT22;57789;53.868;10.728;2023-08-08T06:06:21;12.70;99.90
70368;DHT22;57789;53.868;10.728;2023-08-08T06:08:46;12.70;99.90
70368;DHT22;57789;53.868;10.728;2023-08-08T06:11:12;12.60;99.90
70368;DHT22;57789;53.868;10.728;2023-08-08T06:13:38;12.60;99.90
70368;DHT22;57789;53.868;10.728;2023-08-08T06:16:04;12.60;99.90
70368;DHT22;57789;53.868;10.728;2023-08-08T06:18:33;12.60;99.90
70368;DHT22;57789;53.868;10.728;2023-08-08T06:20:59;12.60;99.90
70368;DHT22;57789;53.868;10.728;2023-08-08T06:23:25;12.60;99.90
70368;DHT22;57789;53.868;10.728;2023-08-08T06:25:50;12.60;99.90
70368;DHT22;57789;53.868;10.728;2023-08-08T06:28:16;12.60;99.90
70368;DHT22;57789;53.868;10.728;2023-08-08T06:30:42;12.60;99.90
70368;DHT22;57789;53.868;10.728;2023-08-08T06:33:07;12.60;99.90
70368;DHT22;57789;53.868;10.728;2023-08-08T06:35:33;12.60;99.90
70368;DHT22;57789;53.868;10.728;2023-08-08T06:37:59;12.70;99.90
70368;DHT22;57789;53.868;10.728;2023-08-08T06:40:25;12.80;99.90
70368;DHT22;57789;53.868;10.728;2023-08-08T06:42:50;12.80;99.90
70368;DHT22;57789;53.868;10.728;2023-08-08T06:45:16;12.90;99.90
70368;DHT22;57789;53.868;10.728;2023-08-08T06:47:42;13.00;99.90
70368;DHT22;57789;53.868;10.728;2023-08-08T06:50:08;13.20;99.90
70368;DHT22;57789;53.868;10.728;2023-08-08T06:52:34;13.30;99.90
70368;DHT22;57789;53.868;10.728;2023-08-08T06:54:59;13.30;99.90
70368;DHT22;57789;53.868;10.728;2023-08-08T06:57:25;13.40;99.90
70368;DHT22;57789;53.868;10.728;2023-08-08T06:59:50;13.50;99.90
70368;DHT22;57789;53.868;10.728;2023-08-08T07:02:21;13.50;99.90
70368;DHT22;57789;53.868;10.728;2023-08-08T07:04:47;13.60;99.90
70368;DHT22;57789;53.868;10.728;2023-08-08T07:07:12;13.60;99.90
70368;DHT22;57789;53.868;10.728;2023-08-08T07:09:38;13.70;99.90
70368;DHT22;57789;53.868;10.728;2023-08-08T07:12:04;13.70;99.90
70368;DHT22;57789;53.868;10.728;2023-08-08T07:14:30;13.60;99.90
70368;DHT22;57789;53.868;10.728;2023-08-08T07:16:56;13.60;99.90
70368;DHT22;57789;53.868;10.728;2023-08-08T07:19:22;13.60;99.90
70368;DHT22;57789;53.868;10.728;2023-08-08T07:21:47;13.60;99.90
70368;DHT22;57789;53.868;10.728;2023-08-08T07:24:13;13.60;99.90
70368;DHT22;57789;53.868;10.728;2023-08-08T07:26:40;13.70;99.90
70368;DHT22;57789;53.868;10.728;2023-08-08T07:29:05;13.80;99.90
70368;DHT22;57789;53.868;10.728;2023-08-08T07:31:32;13.90;99.90
70368;DHT22;57789;53.868;10.728;2023-08-08T07:33:58;14.00;99.90
70368;DHT22;57789;53.868;10.728;2023-08-08T07:36:23;14.00;99.90
70368;DHT22;57789;53.868;10.728;2023-08-08T07:38:49;14.10;99.90
70368;DHT22;57789;53.868;10.728;2023-08-08T07:41:15;14.20;99.90
70368;DHT22;57789;53.868;10.728;2023-08-08T07:43:40;14.20;99.90
70368;DHT22;57789;53.868;10.728;2023-08-08T07:46:06;14.30;99.90
70368;DHT22;57789;53.868;10.728;2023-08-08T07:48:32;14.30;99.90
70368;DHT22;57789;53.868;10.728;2023-08-08T07:50:58;14.40;99.90
70368;DHT22;57789;53.868;10.728;2023-08-08T07:53:23;14.50;99.90
70368;DHT22;57789;53.868;10.728;2023-08-08T07:55:49;14.60;99.90
70368;DHT22;57789;53.868;10.728;2023-08-08T07:58:15;14.70;99.90
70368;DHT22;57789;53.868;10.728;2023-08-08T08:00:40;14.70;99.90
70368;DHT22;57789;53.868;10.728;2023-08-08T08:03:06;14.80;99.90
70368;DHT22;57789;53.868;10.728;2023-08-08T08:05:32;15.00;99.90
70368;DHT22;57789;53.868;10.728;2023-08-08T08:08:00;15.20;99.90
70368;DHT22;57789;53.868;10.728;2023-08-08T08:10:26;15.40;99.90
70368;DHT22;57789;53.868;10.728;2023-08-08T08:12:51;15.60;99.90
70368;DHT22;57789;53.868;10.728;2023-08-08T08:15:23;15.70;99.90
70368;DHT22;57789;53.868;10.728;2023-08-08T08:17:49;15.70;99.90
70368;DHT22;57789;53.868;10.728;2023-08-08T08:20:15;15.70;99.90
70368;DHT22;57789;53.868;10.728;2023-08-08T08:22:40;15.70;99.90
70368;DHT22;57789;53.868;10.728;2023-08-08T08:25:06;15.70;99.90
70368;DHT22;57789;53.868;10.728;2023-08-08T08:27:36;15.80;99.90
70368;DHT22;57789;53.868;10.728;2023-08-08T08:30:06;15.80;99.90
70368;DHT22;57789;53.868;10.728;2023-08-08T08:32:34;15.80;99.90
70368;DHT22;57789;53.868;10.728;2023-08-08T08:35:03;15.80;99.90
70368;DHT22;57789;53.868;10.728;2023-08-08T08:37:30;15.90;99.90
70368;DHT22;57789;53.868;10.728;2023-08-08T08:39:55;15.90;99.90
70368;DHT22;57789;53.868;10.728;2023-08-08T08:42:22;15.90;99.90
70368;DHT22;57789;53.868;10.728;2023-08-08T08:44:49;15.90;99.90
70368;DHT22;57789;53.868;10.728;2023-08-08T08:47:15;15.70;99.90
70368;DHT22;57789;53.868;10.728;2023-08-08T08:49:44;15.40;99.90
70368;DHT22;57789;53.868;10.728;2023-08-08T08:52:11;14.90;99.90
70368;DHT22;57789;53.868;10.728;2023-08-08T08:54:37;14.60;99.90
70368;DHT22;57789;53.868;10.728;2023-08-08T08:57:03;14.20;99.90
70368;DHT22;57789;53.868;10.728;2023-08-08T08:59:29;14.00;99.90
70368;DHT22;57789;53.868;10.728;2023-08-08T09:01:56;13.90;99.90
70368;DHT22;57789;53.868;10.728;2023-08-08T09:04:23;13.90;99.90
70368;DHT22;57789;53.868;10.728;2023-08-08T09:06:50;14.00;99.90
70368;DHT22;57789;53.868;10.728;2023-08-08T09:09:16;14.00;99.90
70368;DHT22;57789;53.868;10.728;2023-08-08T09:11:47;13.90;99.90
70368;DHT22;57789;53.868;10.728;2023-08-08T09:14:17;13.90;99.90
70368;DHT22;57789;53.868;10.728;2023-08-08T09:16:43;13.90;99.90
70368;DHT22;57789;53.868;10.728;2023-08-08T09:19:09;13.90;99.90
70368;DHT22;57789;53.868;10.728;2023-08-08T09:21:34;14.00;99.90
70368;DHT22;57789;53.868;10.728;2023-08-08T09:24:00;14.00;99.90
70368;DHT22;57789;53.868;10.728;2023-08-08T09:26:26;14.10;99.90
70368;DHT22;57789;53.868;10.728;2023-08-08T09:28:52;14.30;99.90
70368;DHT22;57789;53.868;10.728;2023-08-08T09:31:17;14.40;99.90
70368;DHT22;57789;53.868;10.728;2023-08-08T09:33:43;14.40;99.90
70368;DHT22;57789;53.868;10.728;2023-08-08T09:36:14;14.50;99.90
70368;DHT22;57789;53.868;10.728;2023-08-08T09:38:41;14.60;99.90
70368;DHT22;57789;53.868;10.728;2023-08-08T09:41:06;14.50;99.90
70368;DHT22;57789;53.868;10.728;2023-08-08T09:43:32;14.50;99.90
70368;DHT22;57789;53.868;10.728;2023-08-08T09:45:58;14.50;99.90
70368;DHT22;57789;53.868;10.728;2023-08-08T09:48:30;14.70;99.90
70368;DHT22;57789;53.868;10.728;2023-08-08T09:51:01;14.90;99.90
70368;DHT22;57789;53.868;10.728;2023-08-08T09:53:27;15.10;99.90
70368;DHT22;57789;53.868;10.728;2023-08-08T09:55:56;15.20;99.90
70368;DHT22;57789;53.868;10.728;2023-08-08T09:58:22;15.40;99.90
70368;DHT22;57789;53.868;10.728;2023-08-08T10:00:51;15.50;99.90
70368;DHT22;57789;53.868;10.728;2023-08-08T10:03:18;15.60;99.90
70368;DHT22;57789;53.868;10.728;2023-08-08T10:05:44;15.50;99.90
70368;DHT22;57789;53.868;10.728;2023-08-08T10:08:10;15.50;99.90
70368;DHT22;57789;53.868;10.728;2023-08-08T10:10:37;15.50;99.90
70368;DHT22;57789;53.868;10.728;2023-08-08T10:13:03;15.50;99.90
70368;DHT22;57789;53.868;10.728;2023-08-08T10:15:30;15.70;99.90
70368;DHT22;57789;53.868;10.728;2023-08-08T10:17:57;15.80;99.90
70368;DHT22;57789;53.868;10.728;2023-08-08T10:20:24;15.90;99.90
70368;DHT22;57789;53.868;10.728;2023-08-08T10:22:52;16.20;99.90
70368;DHT22;57789;53.868;10.728;2023-08-08T10:28:01;16.10;99.90
70368;DHT22;57789;53.868;10.728;2023-08-08T10:30:27;16.00;99.90
70368;DHT22;57789;53.868;10.728;2023-08-08T10:32:56;16.00;99.90
70368;DHT22;57789;53.868;10.728;2023-08-08T10:35:22;15.90;99.90
70368;DHT22;57789;53.868;10.728;2023-08-08T10:37:54;15.80;99.90
70368;DHT22;57789;53.868;10.728;2023-08-08T10:40:20;15.70;99.90
70368;DHT22;57789;53.868;10.728;2023-08-08T10:42:46;15.80;99.90
70368;DHT22;57789;53.868;10.728;2023-08-08T10:45:14;15.90;99.90
70368;DHT22;57789;53.868;10.728;2023-08-08T10:47:40;16.00;99.90
70368;DHT22;57789;53.868;10.728;2023-08-08T10:50:08;16.20;99.90
70368;DHT22;57789;53.868;10.728;2023-08-08T10:55:26;16.50;99.90
70368;DHT22;57789;53.868;10.728;2023-08-08T10:57:58;16.70;99.90
70368;DHT22;57789;53.868;10.728;2023-08-08T11:00:27;16.90;99.90
70368;DHT22;57789;53.868;10.728;2023-08-08T11:02:55;16.70;99.90
70368;DHT22;57789;53.868;10.728;2023-08-08T11:05:22;16.60;99.90
70368;DHT22;57789;53.868;10.728;2023-08-08T11:07:48;16.60;99.90
70368;DHT22;57789;53.868;10.728;2023-08-08T11:10:14;16.70;99.90
70368;DHT22;57789;53.868;10.728;2023-08-08T11:12:40;16.80;99.90
70368;DHT22;57789;53.868;10.728;2023-08-08T11:15:06;16.80;99.90
70368;DHT22;57789;53.868;10.728;2023-08-08T11:17:32;16.80;99.90
70368;DHT22;57789;53.868;10.728;2023-08-08T11:19:58;17.00;99.90
70368;DHT22;57789;53.868;10.728;2023-08-08T11:22:23;17.10;99.90
70368;DHT22;57789;53.868;10.728;2023-08-08T11:24:49;17.10;99.90
70368;DHT22;57789;53.868;10.728;2023-08-08T11:27:16;17.10;99.90
70368;DHT22;57789;53.868;10.728;2023-08-08T11:29:51;17.10;99.90
70368;DHT22;57789;53.868;10.728;2023-08-08T11:32:17;17.30;99.90
70368;DHT22;57789;53.868;10.728;2023-08-08T11:34:43;17.20;99.90
70368;DHT22;57789;53.868;10.728;2023-08-08T11:37:11;17.40;99.90
70368;DHT22;57789;53.868;10.728;2023-08-08T11:39:40;17.40;99.90
70368;DHT22;57789;53.868;10.728;2023-08-08T11:42:06;17.30;99.90
70368;DHT22;57789;53.868;10.728;2023-08-08T11:44:32;17.00;99.90
70368;DHT22;57789;53.868;10.728;2023-08-08T11:47:02;16.90;99.90
70368;DHT22;57789;53.868;10.728;2023-08-08T11:49:28;16.70;99.90
70368;DHT22;57789;53.868;10.728;2023-08-08T11:51:56;16.80;99.90
70368;DHT22;57789;53.868;10.728;2023-08-08T11:54:22;16.70;99.90
70368;DHT22;57789;53.868;10.728;2023-08-08T11:56:48;16.70;99.90
70368;DHT22;57789;53.868;10.728;2023-08-08T11:59:13;16.80;99.90
70368;DHT22;57789;53.868;10.728;2023-08-08T12:01:41;17.00;99.90
70368;DHT22;57789;53.868;10.728;2023-08-08T12:04:08;17.30;99.90
70368;DHT22;57789;53.868;10.728;2023-08-08T12:06:37;17.50;99.90
70368;DHT22;57789;53.868;10.728;2023-08-08T12:09:06;17.40;99.90
70368;DHT22;57789;53.868;10.728;2023-08-08T12:11:35;17.40;99.90
70368;DHT22;57789;53.868;10.728;2023-08-08T12:14:07;17.40;99.90
70368;DHT22;57789;53.868;10.728;2023-08-08T12:16:32;17.80;99.90
70368;DHT22;57789;53.868;10.728;2023-08-08T12:19:02;17.80;99.90
70368;DHT22;57789;53.868;10.728;2023-08-08T12:21:28;17.80;99.90
70368;DHT22;57789;53.868;10.728;2023-08-08T12:23:53;17.70;99.90
70368;DHT22;57789;53.868;10.728;2023-08-08T12:26:19;17.50;99.90
70368;DHT22;57789;53.868;10.728;2023-08-08T12:28:45;17.30;99.90
70368;DHT22;57789;53.868;10.728;2023-08-08T12:31:11;17.20;99.90
70368;DHT22;57789;53.868;10.728;2023-08-08T12:33:36;17.10;99.90
70368;DHT22;57789;53.868;10.728;2023-08-08T12:36:02;17.30;99.90
70368;DHT22;57789;53.868;10.728;2023-08-08T12:38:28;17.50;99.90
70368;DHT22;57789;53.868;10.728;2023-08-08T12:40:54;17.30;99.90
70368;DHT22;57789;53.868;10.728;2023-08-08T12:43:19;17.10;99.90
70368;DHT22;57789;53.868;10.728;2023-08-08T12:45:45;16.90;99.90
70368;DHT22;57789;53.868;10.728;2023-08-08T12:48:12;16.70;99.90
70368;DHT22;57789;53.868;10.728;2023-08-08T12:50:38;16.00;99.90
70368;DHT22;57789;53.868;10.728;2023-08-08T12:53:04;15.10;99.90
70368;DHT22;57789;53.868;10.728;2023-08-08T12:55:30;14.80;99.90
70368;DHT22;57789;53.868;10.728;2023-08-08T12:57:56;14.90;99.90
70368;DHT22;57789;53.868;10.728;2023-08-08T13:00:22;15.20;99.90
70368;DHT22;57789;53.868;10.728;2023-08-08T13:02:49;15.30;99.90
70368;DHT22;57789;53.868;10.728;2023-08-08T13:05:14;15.60;99.90
70368;DHT22;57789;53.868;10.728;2023-08-08T13:07:40;16.00;99.90
70368;DHT22;57789;53.868;10.728;2023-08-08T13:10:06;16.40;99.90
70368;DHT22;57789;53.868;10.728;2023-08-08T13:12:32;16.80;99.90
70368;DHT22;57789;53.868;10.728;2023-08-08T13:14:57;17.20;99.90
70368;DHT22;57789;53.868;10.728;2023-08-08T13:17:23;17.70;99.90
70368;DHT22;57789;53.868;10.728;2023-08-08T13:19:49;17.80;99.90
70368;DHT22;57789;53.868;10.728;2023-08-08T13:22:14;17.80;99.90
70368;DHT22;57789;53.868;10.728;2023-08-08T13:24:40;18.20;99.90
70368;DHT22;57789;53.868;10.728;2023-08-08T13:27:05;18.20;99.90
70368;DHT22;57789;53.868;10.728;2023-08-08T13:29:31;18.50;99.90
70368;DHT22;57789;53.868;10.728;2023-08-08T13:31:57;18.80;99.90
70368;DHT22;57789;53.868;10.728;2023-08-08T13:34:23;18.90;99.90
70368;DHT22;57789;53.868;10.728;2023-08-08T13:36:49;18.60;99.90
70368;DHT22;57789;53.868;10.728;2023-08-08T13:39:14;18.10;99.90
70368;DHT22;57789;53.868;10.728;2023-08-08T13:41:40;17.60;99.90
70368;DHT22;57789;53.868;10.728;2023-08-08T13:44:06;17.30;99.90
70368;DHT22;57789;53.868;10.728;2023-08-08T13:46:31;16.30;99.90
70368;DHT22;57789;53.868;10.728;2023-08-08T13:48:57;15.60;99.90
70368;DHT22;57789;53.868;10.728;2023-08-08T13:51:23;14.70;99.90
70368;DHT22;57789;53.868;10.728;2023-08-08T13:53:48;14.00;99.90
70368;DHT22;57789;53.868;10.728;2023-08-08T13:56:14;13.60;99.90
70368;DHT22;57789;53.868;10.728;2023-08-08T13:58:40;13.40;99.90
70368;DHT22;57789;53.868;10.728;2023-08-08T14:01:06;13.80;99.90
70368;DHT22;57789;53.868;10.728;2023-08-08T14:03:32;13.90;99.90
70368;DHT22;57789;53.868;10.728;2023-08-08T14:05:57;14.00;99.90
70368;DHT22;57789;53.868;10.728;2023-08-08T14:08:23;14.10;99.90
70368;DHT22;57789;53.868;10.728;2023-08-08T14:10:49;14.20;99.90
70368;DHT22;57789;53.868;10.728;2023-08-08T14:13:14;14.30;99.90
70368;DHT22;57789;53.868;10.728;2023-08-08T14:15:40;14.40;99.90
70368;DHT22;57789;53.868;10.728;2023-08-08T14:18:06;14.50;99.90
70368;DHT22;57789;53.868;10.728;2023-08-08T14:20:32;14.60;99.90
70368;DHT22;57789;53.868;10.728;2023-08-08T14:22:58;14.70;99.90
70368;DHT22;57789;53.868;10.728;2023-08-08T14:25:23;14.60;99.90
70368;DHT22;57789;53.868;10.728;2023-08-08T14:27:49;14.60;99.90
70368;DHT22;57789;53.868;10.728;2023-08-08T14:30:15;14.60;99.90
70368;DHT22;57789;53.868;10.728;2023-08-08T14:32:41;14.60;99.90
70368;DHT22;57789;53.868;10.728;2023-08-08T14:35:07;14.70;99.90
70368;DHT22;57789;53.868;10.728;2023-08-08T14:37:35;14.80;99.90
70368;DHT22;57789;53.868;10.728;2023-08-08T14:40:01;15.20;99.90
70368;DHT22;57789;53.868;10.728;2023-08-08T14:42:26;15.50;99.90
70368;DHT22;57789;53.868;10.728;2023-08-08T14:44:52;15.50;99.90
70368;DHT22;57789;53.868;10.728;2023-08-08T14:47:18;15.50;99.90
70368;DHT22;57789;53.868;10.728;2023-08-08T14:49:43;15.50;99.90
70368;DHT22;57789;53.868;10.728;2023-08-08T14:52:09;15.80;99.90
70368;DHT22;57789;53.868;10.728;2023-08-08T14:54:35;16.00;99.90
70368;DHT22;57789;53.868;10.728;2023-08-08T14:57:01;16.10;99.90
70368;DHT22;57789;53.868;10.728;2023-08-08T14:59:27;15.90;99.90
70368;DHT22;57789;53.868;10.728;2023-08-08T15:01:53;15.80;99.90
70368;DHT22;57789;53.868;10.728;2023-08-08T15:04:19;15.90;99.90
70368;DHT22;57789;53.868;10.728;2023-08-08T15:06:45;16.10;99.90
70368;DHT22;57789;53.868;10.728;2023-08-08T15:09:10;16.30;99.90
70368;DHT22;57789;53.868;10.728;2023-08-08T15:11:36;16.60;99.90
70368;DHT22;57789;53.868;10.728;2023-08-08T15:14:02;17.30;99.90